Terminal Aerodrome Forecast
Issued by NWS Boston, MA

Current Version | Previous Version | Text Only | Print | Product List | Glossary On
Versions: 1 2 3 4 5 6 7 8 9 10 11 12 13 14 15 16 17 18 19 20 21 22 23 24 25 26 27 28 29 30 31 32 33 34 35 36 37 38 39 40 41
000 FTUS41 KBOX 022325 TAFBDL TAF KBDL 022325Z 0300/0406 31011G21KT P6SM SCT050 FM030300 31008KT P6SM SCT250 FM030600 VRB04KT P6SM SCT250 FM032300 18007KT 3SM -SN OVC050 FM040000 18008KT 2SM -SN OVC020 FM040300 18009KT 1SM -SNPL OVC010 FM040400 19009KT 3SM -FZRAPL OVC010=

USA.gov is the U.S. government's official web portal to all federal, state and local government web resources and services.